My Little Violet — ZCPE7 — position and weather

sailwx.info

Track history (hours):
 
Tides and Currents Weather Stations Pressure Air Temp Water Temp Dewpoint Dewpoint Depression Visibility Wind Speed Wind Dir Waves Ship Positions

My Little Violet

Last reported at 2015-Jul-03 23:33 UTC. Time now 2015-Jul-03 23:43 UTC.
Position N 43°17' E 006°37'.

Length 45 m; draft 2.9 m.

Type: Pleasure craft. MMSI: 319496000.

Date/timePositionNaut miles runAvg speedWind from/ knotsBaromVisibWave heightAir tempDewpointWater temp
2015-Jul-03 23:33N 43°17' E 006°37'0 0.0
2015-Jul-03 22:26N 43°17' E 006°37'0 0.0
2015-Jul-03 21:31N 43°17' E 006°37'4 4.4
2015-Jul-03 20:31N 43°19' E 006°43'1212.5
2015-Jul-03 19:33N 43°25' E 006°56'1212.5
2015-Jul-03 18:33N 43°33' E 007°09'6 5.4
2015-Jul-03 17:29N 43°39' E 007°11'0 0.0
2015-Jul-03 16:29N 43°39' E 007°11'0 0.0
2015-Jul-03 15:29N 43°39' E 007°11'2 2.6
2015-Jul-03 14:33N 43°39' E 007°14'4 1.7
2015-Jul-03 12:27N 43°42' E 007°17'0 0.0
2015-Jul-03 11:33N 43°42' E 007°17'0 0.0
2015-Jul-03 10:33N 43°42' E 007°17'0 0.0
2015-Jul-03 09:34N 43°42' E 007°17'0 0.0
2015-Jul-03 08:33N 43°42' E 007°17'0 0.0
2015-Jul-03 07:33N 43°42' E 007°17'5 4.4
2015-Jul-03 06:29N 43°41' E 007°24'1112.4
2015-Jul-03 05:33N 43°45' E 007°38'1512.6
2015-Jul-03 04:23N 43°50' E 007°58'  
2015-Jun-29 06:31N 43°53' E 008°02'0 0.1
2015-Jun-28 22:27N 43°53' E 008°03'10 9.8
2015-Jun-28 21:27N 43°48' E 007°51'1011.5
2015-Jun-28 20:33N 43°44' E 007°37'1211.9
2015-Jun-28 19:33N 43°40' E 007°22'8 8.3
2015-Jun-28 18:34N 43°39' E 007°11'6 5.5
2015-Jun-28 17:33N 43°34' E 007°10'28 9.4
2015-Jun-28 14:33N 43°14' E 006°42'1 0.5
2015-Jun-28 12:11N 43°14' E 006°40'4 1.3
2015-Jun-28 09:27N 43°17' E 006°37'0 0.0
2015-Jun-28 08:27N 43°17' E 006°37'0 0.0
2015-Jun-28 06:33N 43°17' E 006°37'0 0.0
2015-Jun-28 02:33N 43°17' E 006°37'0 0.0
2015-Jun-27 23:33N 43°17' E 006°37'0 0.0
2015-Jun-27 22:33N 43°17' E 006°37'0 0.0
2015-Jun-27 21:27N 43°17' E 006°37'0 0.0
2015-Jun-27 20:33N 43°17' E 006°37'0 0.0
2015-Jun-27 19:33N 43°17' E 006°37'0 0.0
2015-Jun-27 18:32N 43°17' E 006°37'0 0.0
2015-Jun-27 17:32N 43°17' E 006°37'0 0.3
2015-Jun-27 16:33N 43°17' E 006°38'4 1.0
2015-Jun-27 12:30N 43°13' E 006°40'0 0.1
2015-Jun-27 11:33N 43°13' E 006°40'4 4.1
2015-Jun-27 10:33N 43°17' E 006°37'0 0.0
2015-Jun-27 02:32N 43°17' E 006°37'0 0.0
2015-Jun-27 01:31N 43°17' E 006°37'0 0.0
2015-Jun-27 00:33N 43°17' E 006°37'0 0.0
2015-Jun-26 23:33N 43°17' E 006°37'0 0.0
2015-Jun-26 22:33N 43°17' E 006°37'0 0.0
2015-Jun-26 21:33N 43°17' E 006°37'0 0.4
2015-Jun-26 20:33N 43°17' E 006°38'1110.6
2015-Jun-26 19:33N 43°22' E 006°50'1211.8
2015-Jun-26 18:33N 43°29' E 007°04'1111.3
2015-Jun-26 17:33N 43°39' E 007°11'0 0.1
2015-Jun-26 16:33N 43°39' E 007°11'0 0.0
2015-Jun-26 15:33N 43°39' E 007°11'0 0.0
2015-Jun-26 14:33N 43°39' E 007°11'0 0.0
2015-Jun-26 13:33N 43°39' E 007°11'0 0.0
2015-Jun-26 12:33N 43°39' E 007°11'2 2.3
2015-Jun-26 11:33N 43°38' E 007°14'1311.7
2015-Jun-26 10:28N 43°43' E 007°30'1111.7
2015-Jun-26 09:33N 43°47' E 007°44'1111.3
2015-Jun-26 08:33N 43°51' E 007°58'  
Track history (hours):
 
Tides and Currents Weather Stations Pressure Air Temp Water Temp Dewpoint Dewpoint Depression Visibility Wind Speed Wind Dir Waves Ship Positions

My Little Violet

Last reported at 2015-Jul-03 23:33 UTC. Time now 2015-Jul-03 23:43 UTC.
Position N 43°17' E 006°37'.

Length 45 m; draft 2.9 m.

Type: Pleasure craft. MMSI: 319496000.

Date/timePositionNaut miles runAvg speedWind from/ knotsBaromVisibWave heightAir tempDewpointWater temp
2015-Jul-03 23:33N 43°17' E 006°37'0 0.0
2015-Jul-03 22:26N 43°17' E 006°37'0 0.0
2015-Jul-03 21:31N 43°17' E 006°37'4 4.4
2015-Jul-03 20:31N 43°19' E 006°43'1212.5
2015-Jul-03 19:33N 43°25' E 006°56'1212.5
2015-Jul-03 18:33N 43°33' E 007°09'6 5.4
2015-Jul-03 17:29N 43°39' E 007°11'0 0.0
2015-Jul-03 16:29N 43°39' E 007°11'0 0.0
2015-Jul-03 15:29N 43°39' E 007°11'2 2.6
2015-Jul-03 14:33N 43°39' E 007°14'4 1.7
2015-Jul-03 12:27N 43°42' E 007°17'0 0.0
2015-Jul-03 11:33N 43°42' E 007°17'0 0.0
2015-Jul-03 10:33N 43°42' E 007°17'0 0.0
2015-Jul-03 09:34N 43°42' E 007°17'0 0.0
2015-Jul-03 08:33N 43°42' E 007°17'0 0.0
2015-Jul-03 07:33N 43°42' E 007°17'5 4.4
2015-Jul-03 06:29N 43°41' E 007°24'1112.4
2015-Jul-03 05:33N 43°45' E 007°38'1512.6
2015-Jul-03 04:23N 43°50' E 007°58'  
2015-Jun-29 06:31N 43°53' E 008°02'0 0.1
2015-Jun-28 22:27N 43°53' E 008°03'10 9.8
2015-Jun-28 21:27N 43°48' E 007°51'1011.5
2015-Jun-28 20:33N 43°44' E 007°37'1211.9
2015-Jun-28 19:33N 43°40' E 007°22'8 8.3
2015-Jun-28 18:34N 43°39' E 007°11'6 5.5
2015-Jun-28 17:33N 43°34' E 007°10'28 9.4
2015-Jun-28 14:33N 43°14' E 006°42'1 0.5
2015-Jun-28 12:11N 43°14' E 006°40'4 1.3
2015-Jun-28 09:27N 43°17' E 006°37'0 0.0
2015-Jun-28 08:27N 43°17' E 006°37'0 0.0
2015-Jun-28 06:33N 43°17' E 006°37'0 0.0
2015-Jun-28 02:33N 43°17' E 006°37'0 0.0
2015-Jun-27 23:33N 43°17' E 006°37'0 0.0
2015-Jun-27 22:33N 43°17' E 006°37'0 0.0
2015-Jun-27 21:27N 43°17' E 006°37'0 0.0
2015-Jun-27 20:33N 43°17' E 006°37'0 0.0
2015-Jun-27 19:33N 43°17' E 006°37'0 0.0
2015-Jun-27 18:32N 43°17' E 006°37'0 0.0
2015-Jun-27 17:32N 43°17' E 006°37'0 0.3
2015-Jun-27 16:33N 43°17' E 006°38'4 1.0
2015-Jun-27 12:30N 43°13' E 006°40'0 0.1
2015-Jun-27 11:33N 43°13' E 006°40'4 4.1
2015-Jun-27 10:33N 43°17' E 006°37'0 0.0
2015-Jun-27 02:32N 43°17' E 006°37'0 0.0
2015-Jun-27 01:31N 43°17' E 006°37'0 0.0
2015-Jun-27 00:33N 43°17' E 006°37'0 0.0
2015-Jun-26 23:33N 43°17' E 006°37'0 0.0
2015-Jun-26 22:33N 43°17' E 006°37'0 0.0
2015-Jun-26 21:33N 43°17' E 006°37'0 0.4
2015-Jun-26 20:33N 43°17' E 006°38'1110.6
2015-Jun-26 19:33N 43°22' E 006°50'1211.8
2015-Jun-26 18:33N 43°29' E 007°04'1111.3
2015-Jun-26 17:33N 43°39' E 007°11'0 0.1
2015-Jun-26 16:33N 43°39' E 007°11'0 0.0
2015-Jun-26 15:33N 43°39' E 007°11'0 0.0
2015-Jun-26 14:33N 43°39' E 007°11'0 0.0
2015-Jun-26 13:33N 43°39' E 007°11'0 0.0
2015-Jun-26 12:33N 43°39' E 007°11'2 2.3
2015-Jun-26 11:33N 43°38' E 007°14'1311.7
2015-Jun-26 10:28N 43°43' E 007°30'1111.7
2015-Jun-26 09:33N 43°47' E 007°44'1111.3
2015-Jun-26 08:33N 43°51' E 007°58'  

Dump ship's entire track history